createdAt,value
2022-12-31T00:01:14.906Z,5.11
2022-12-31T00:03:43.427Z,5.02
2022-12-31T00:06:32.310Z,4.98
2022-12-31T00:09:02.069Z,4.97
2022-12-31T00:11:30.831Z,5.05
2022-12-31T00:13:58.872Z,4.99
2022-12-31T00:16:29.836Z,4.98
2022-12-31T00:18:59.241Z,5.05
2022-12-31T00:21:28.831Z,4.98
2022-12-31T00:23:56.735Z,5.00
2022-12-31T00:26:26.833Z,4.93
2022-12-31T00:28:56.150Z,4.94
2022-12-31T00:31:29.005Z,4.82
2022-12-31T00:33:57.715Z,4.89
2022-12-31T00:36:31.180Z,4.97
2022-12-31T00:39:00.465Z,5.02
2022-12-31T00:41:29.040Z,5.07
2022-12-31T00:43:57.115Z,4.89
2022-12-31T00:46:25.504Z,4.84
2022-12-31T00:48:53.235Z,4.92
2022-12-31T00:51:23.066Z,4.70
2022-12-31T00:53:51.020Z,4.71
2022-12-31T00:56:21.080Z,4.58
2022-12-31T00:58:49.264Z,4.96
2022-12-31T01:01:23.132Z,4.84
2022-12-31T01:03:53.017Z,5.08
2022-12-31T01:06:21.466Z,4.74
2022-12-31T01:08:49.891Z,4.86
2022-12-31T01:11:17.994Z,4.92
2022-12-31T01:13:50.984Z,4.85
2022-12-31T01:16:32.585Z,5.07
2022-12-31T01:19:02.648Z,4.96
2022-12-31T01:21:30.441Z,5.04
2022-12-31T01:23:59.085Z,4.88
2022-12-31T01:26:28.042Z,4.97
2022-12-31T01:28:55.970Z,4.93
2022-12-31T01:31:24.481Z,5.06
2022-12-31T01:33:52.988Z,5.01
2022-12-31T01:36:26.809Z,4.83
2022-12-31T01:39:03.600Z,4.69
2022-12-31T01:41:34.683Z,4.78
2022-12-31T01:44:11.423Z,4.81
2022-12-31T01:46:44.186Z,4.79
2022-12-31T01:49:21.291Z,4.73
2022-12-31T01:51:52.516Z,5.01
2022-12-31T01:54:20.445Z,4.68
2022-12-31T01:56:48.507Z,4.72
2022-12-31T01:59:17.772Z,4.75
2022-12-31T02:01:45.816Z,4.86
2022-12-31T02:04:14.376Z,4.99
2022-12-31T02:06:45.939Z,5.02
2022-12-31T02:09:14.005Z,5.01
2022-12-31T02:11:41.743Z,4.97
2022-12-31T02:14:31.799Z,4.96
2022-12-31T02:17:11.575Z,4.98
2022-12-31T02:20:04.296Z,4.86
2022-12-31T02:22:51.270Z,5.07
2022-12-31T02:25:40.446Z,5.00
2022-12-31T02:28:20.093Z,4.91
2022-12-31T02:30:56.233Z,5.08
2022-12-31T02:33:30.729Z,5.14
2022-12-31T02:36:02.412Z,5.06
2022-12-31T02:38:33.838Z,5.10
2022-12-31T02:41:03.134Z,5.19
2022-12-31T02:43:31.932Z,5.15
2022-12-31T02:46:21.525Z,5.07
2022-12-31T02:48:54.226Z,5.16
2022-12-31T02:51:44.247Z,4.99
2022-12-31T02:54:41.448Z,5.00
2022-12-31T02:57:49.565Z,5.10
2022-12-31T03:00:17.981Z,4.95
2022-12-31T03:02:47.006Z,5.08
2022-12-31T03:05:16.208Z,5.12
2022-12-31T03:07:44.760Z,4.90
2022-12-31T03:10:12.419Z,5.01
2022-12-31T03:12:41.823Z,5.03
2022-12-31T03:15:10.784Z,5.08
2022-12-31T03:17:38.709Z,4.98
2022-12-31T03:20:06.959Z,4.99
2022-12-31T03:22:37.629Z,4.91
2022-12-31T03:25:11.380Z,4.79
2022-12-31T03:27:39.485Z,4.90
2022-12-31T03:30:07.780Z,4.62
2022-12-31T03:32:35.575Z,4.76
2022-12-31T03:35:04.279Z,4.94
2022-12-31T03:37:31.989Z,4.59
2022-12-31T03:40:00.570Z,4.75
2022-12-31T03:42:28.517Z,4.68
2022-12-31T03:44:56.081Z,4.76
2022-12-31T03:47:23.847Z,4.57
2022-12-31T03:49:51.813Z,4.71
2022-12-31T03:52:19.693Z,4.78
2022-12-31T03:54:47.375Z,4.61
2022-12-31T03:57:15.681Z,4.63
2022-12-31T03:59:43.516Z,4.48
2022-12-31T04:02:11.541Z,4.54
2022-12-31T04:04:39.544Z,4.71
2022-12-31T04:07:07.293Z,4.70
2022-12-31T04:09:34.957Z,4.51
2022-12-31T04:12:03.162Z,4.47
2022-12-31T04:14:30.829Z,4.59
2022-12-31T04:16:58.536Z,4.44
2022-12-31T04:19:26.403Z,4.31
2022-12-31T04:21:53.997Z,4.46
2022-12-31T04:24:21.697Z,4.61
2022-12-31T04:26:49.913Z,4.60
2022-12-31T04:29:17.750Z,4.39
2022-12-31T04:31:46.621Z,4.33
2022-12-31T04:34:14.612Z,4.30
2022-12-31T04:36:42.227Z,4.37
2022-12-31T04:39:10.094Z,4.36
2022-12-31T04:41:38.053Z,4.32
2022-12-31T04:44:05.778Z,4.34
2022-12-31T04:46:33.874Z,4.38
2022-12-31T04:49:02.019Z,4.45
2022-12-31T04:51:30.616Z,4.38
2022-12-31T04:53:58.520Z,4.12
2022-12-31T04:56:27.587Z,4.09
2022-12-31T04:58:55.698Z,4.17
2022-12-31T05:01:23.716Z,4.27
2022-12-31T05:03:51.706Z,4.14
2022-12-31T05:06:21.276Z,4.24
2022-12-31T05:08:49.493Z,4.22
2022-12-31T05:11:17.992Z,4.13
2022-12-31T05:13:45.689Z,4.24
2022-12-31T05:16:13.486Z,4.22
2022-12-31T05:18:41.537Z,4.24
2022-12-31T05:21:10.419Z,4.24
2022-12-31T05:23:38.471Z,4.26
2022-12-31T05:26:06.443Z,4.26
2022-12-31T05:28:34.126Z,4.25
2022-12-31T05:31:02.126Z,4.25
2022-12-31T05:33:30.208Z,4.32
2022-12-31T05:35:57.862Z,4.23
2022-12-31T05:38:26.026Z,4.24
2022-12-31T05:41:04.773Z,4.09
2022-12-31T05:43:32.527Z,4.10
2022-12-31T05:46:01.939Z,4.25
2022-12-31T05:48:30.251Z,4.11
2022-12-31T05:50:58.167Z,4.07
2022-12-31T05:53:26.038Z,4.06
2022-12-31T05:55:53.713Z,4.06
2022-12-31T05:58:21.396Z,4.04
2022-12-31T06:00:49.355Z,4.03
2022-12-31T06:03:17.804Z,3.95
2022-12-31T06:05:45.481Z,4.03
2022-12-31T06:08:13.201Z,4.15
2022-12-31T06:10:41.126Z,4.04
2022-12-31T06:13:08.740Z,4.09
2022-12-31T06:15:38.440Z,4.14
2022-12-31T06:18:07.159Z,4.16
2022-12-31T06:20:37.896Z,4.18
2022-12-31T06:23:06.102Z,4.17
2022-12-31T06:25:35.341Z,4.35
2022-12-31T06:28:04.790Z,4.42
2022-12-31T06:30:32.918Z,4.24
2022-12-31T06:33:00.608Z,4.30
2022-12-31T06:35:28.295Z,4.28
2022-12-31T06:37:56.566Z,4.26
2022-12-31T06:40:24.507Z,4.30
2022-12-31T06:42:57.770Z,4.27
2022-12-31T06:45:27.830Z,4.36
2022-12-31T06:47:55.538Z,4.20
2022-12-31T06:50:23.206Z,4.20
2022-12-31T06:52:51.128Z,4.15
2022-12-31T06:55:19.256Z,4.29
2022-12-31T06:57:47.265Z,4.17
2022-12-31T07:00:16.259Z,4.33
2022-12-31T07:03:08.727Z,4.38
2022-12-31T07:05:57.538Z,4.53
2022-12-31T07:09:00.364Z,4.50
2022-12-31T07:11:32.469Z,4.40
2022-12-31T07:14:18.880Z,4.42
2022-12-31T07:17:33.230Z,4.60
2022-12-31T07:20:06.566Z,4.42
2022-12-31T07:22:36.516Z,4.67
2022-12-31T07:25:05.226Z,4.68
2022-12-31T07:27:38.932Z,4.69
2022-12-31T07:30:13.937Z,4.61
2022-12-31T07:33:02.688Z,4.70
2022-12-31T07:35:42.776Z,4.58
2022-12-31T07:38:34.758Z,4.71
2022-12-31T07:41:29.108Z,4.79
2022-12-31T07:44:23.529Z,4.94
2022-12-31T07:47:00.444Z,4.98
2022-12-31T07:49:29.808Z,5.04
2022-12-31T07:51:58.178Z,5.04
2022-12-31T07:54:25.891Z,5.06
2022-12-31T07:56:53.478Z,5.20
2022-12-31T07:59:51.775Z,5.23
2022-12-31T08:02:58.569Z,5.19
2022-12-31T08:05:34.140Z,5.39
2022-12-31T08:08:22.616Z,5.54
2022-12-31T08:10:53.455Z,5.67
2022-12-31T08:13:21.148Z,5.50
2022-12-31T08:15:50.300Z,5.81
2022-12-31T08:18:18.731Z,5.64
2022-12-31T08:21:12.482Z,5.79
2022-12-31T08:24:00.459Z,5.75
2022-12-31T08:26:27.981Z,5.68
2022-12-31T08:29:15.036Z,5.76
2022-12-31T08:32:24.270Z,5.73
2022-12-31T08:34:59.233Z,5.93
2022-12-31T08:37:44.616Z,6.25
2022-12-31T08:40:24.519Z,6.17
2022-12-31T08:43:13.405Z,6.25
2022-12-31T08:45:52.168Z,6.09
2022-12-31T08:48:34.667Z,6.23
2022-12-31T08:51:03.178Z,6.58
2022-12-31T08:53:33.153Z,6.38
2022-12-31T08:56:07.208Z,6.05
2022-12-31T08:58:39.200Z,5.97
2022-12-31T09:01:08.013Z,5.97
2022-12-31T09:04:07.960Z,5.85
2022-12-31T09:06:48.400Z,5.92
2022-12-31T09:09:34.641Z,5.84
2022-12-31T09:12:16.232Z,6.04
2022-12-31T09:14:45.127Z,5.69
2022-12-31T09:17:24.903Z,5.67
2022-12-31T09:19:53.230Z,5.99
2022-12-31T09:22:20.998Z,6.12
2022-12-31T09:24:48.974Z,6.05
2022-12-31T09:27:38.321Z,6.58
2022-12-31T09:30:09.985Z,6.58
2022-12-31T09:33:05.911Z,6.84
2022-12-31T09:35:35.599Z,6.71
2022-12-31T09:38:12.169Z,6.89
2022-12-31T09:40:45.835Z,6.24
2022-12-31T09:43:33.897Z,6.59
2022-12-31T09:46:19.089Z,6.55
2022-12-31T09:49:19.455Z,6.77
2022-12-31T09:51:56.061Z,6.41
2022-12-31T09:54:30.228Z,6.25
2022-12-31T09:57:07.251Z,6.52
2022-12-31T09:59:41.313Z,6.48
2022-12-31T10:02:46.758Z,6.22
2022-12-31T10:05:26.708Z,6.79
2022-12-31T10:08:27.009Z,6.64
2022-12-31T10:10:58.711Z,6.59
2022-12-31T10:13:41.395Z,6.93
2022-12-31T10:16:20.608Z,6.62
2022-12-31T10:18:54.331Z,6.89
2022-12-31T10:21:51.897Z,7.08
2022-12-31T10:24:38.386Z,7.26
2022-12-31T10:27:19.703Z,7.50
2022-12-31T10:30:13.315Z,7.33
2022-12-31T10:32:58.701Z,7.35
2022-12-31T10:35:31.599Z,7.26
2022-12-31T10:38:28.865Z,6.99
2022-12-31T10:41:08.917Z,7.69
2022-12-31T10:43:51.515Z,6.91
2022-12-31T10:46:53.901Z,7.46
2022-12-31T10:49:46.244Z,7.19
2022-12-31T10:52:27.588Z,7.09
2022-12-31T10:55:34.966Z,7.01
2022-12-31T10:58:40.261Z,7.36
2022-12-31T11:01:26.412Z,7.42
2022-12-31T11:04:02.993Z,7.12
2022-12-31T11:06:46.090Z,7.15
2022-12-31T11:09:42.909Z,6.96
2022-12-31T11:12:38.473Z,7.08
2022-12-31T11:15:36.050Z,7.09
2022-12-31T11:18:30.577Z,7.03
2022-12-31T11:21:02.769Z,7.26
2022-12-31T11:23:58.162Z,6.99
2022-12-31T11:26:47.526Z,7.27
2022-12-31T11:29:40.120Z,7.24
2022-12-31T11:32:28.299Z,7.12
2022-12-31T11:35:20.871Z,7.16
2022-12-31T11:38:19.001Z,7.26
2022-12-31T11:40:56.723Z,7.21
2022-12-31T11:44:03.361Z,7.29
2022-12-31T11:46:34.280Z,7.63
2022-12-31T11:49:23.345Z,7.05
2022-12-31T11:52:09.065Z,7.20
2022-12-31T11:54:53.495Z,7.51
2022-12-31T11:57:34.518Z,7.59
2022-12-31T12:00:06.753Z,7.57
2022-12-31T12:02:45.977Z,7.50
2022-12-31T12:05:15.798Z,7.75
2022-12-31T12:07:45.298Z,7.85
2022-12-31T12:10:36.137Z,7.68
2022-12-31T12:13:16.655Z,7.83
2022-12-31T12:15:50.978Z,7.77
2022-12-31T12:18:48.449Z,7.96
2022-12-31T12:21:18.369Z,8.06
2022-12-31T12:24:14.511Z,8.10
2022-12-31T12:26:43.958Z,8.19
2022-12-31T12:29:14.559Z,8.17
2022-12-31T12:31:42.734Z,8.25
2022-12-31T12:45:16.940Z,9.28
2022-12-31T12:47:46.759Z,9.28
2022-12-31T12:50:17.412Z,8.68
2022-12-31T12:52:59.559Z,8.48
2022-12-31T12:55:41.959Z,8.56
2022-12-31T12:58:47.351Z,8.52
2022-12-31T13:01:33.516Z,8.44
2022-12-31T13:07:03.306Z,8.70
2022-12-31T13:09:52.775Z,8.34
2022-12-31T13:13:05.300Z,8.38
2022-12-31T13:15:44.154Z,8.45
2022-12-31T13:18:37.825Z,8.55
2022-12-31T13:21:14.318Z,8.51
2022-12-31T13:23:50.041Z,8.68
2022-12-31T13:26:26.273Z,8.60
2022-12-31T13:28:58.671Z,8.82
2022-12-31T13:31:40.269Z,8.72
2022-12-31T13:34:12.463Z,8.79
2022-12-31T13:36:44.384Z,9.01
2022-12-31T13:39:27.393Z,8.88
2022-12-31T13:42:07.601Z,9.21
2022-12-31T13:44:51.979Z,9.15
2022-12-31T13:47:33.108Z,9.10
2022-12-31T13:50:14.780Z,8.69
2022-12-31T13:53:03.315Z,8.75
2022-12-31T13:55:34.591Z,8.34
2022-12-31T13:58:21.002Z,8.45
2022-12-31T14:00:53.264Z,8.10
2022-12-31T14:03:51.999Z,8.37
2022-12-31T14:06:56.449Z,8.51
2022-12-31T14:09:29.502Z,8.57
2022-12-31T14:12:21.690Z,8.73
2022-12-31T14:15:05.211Z,8.75
2022-12-31T14:17:51.315Z,8.69
2022-12-31T14:20:22.012Z,8.98
2022-12-31T14:23:12.933Z,9.15
2022-12-31T14:25:50.570Z,9.20
2022-12-31T14:28:59.288Z,9.37
2022-12-31T14:31:48.676Z,9.15
2022-12-31T14:34:24.347Z,9.30
2022-12-31T14:36:57.655Z,9.15
2022-12-31T14:39:45.269Z,9.20
2022-12-31T14:42:22.044Z,9.30
2022-12-31T14:44:58.258Z,9.20
2022-12-31T14:47:41.134Z,9.25
2022-12-31T14:50:10.237Z,9.10
2022-12-31T14:52:48.977Z,9.01
2022-12-31T14:55:28.172Z,9.00
2022-12-31T15:00:55.937Z,9.00
2022-12-31T15:03:31.546Z,9.00
2022-12-31T15:06:17.315Z,8.91
2022-12-31T15:09:08.454Z,9.04
2022-12-31T15:11:47.862Z,8.87
2022-12-31T15:14:18.228Z,8.84
2022-12-31T15:16:48.264Z,8.81
2022-12-31T15:19:18.913Z,8.79
2022-12-31T15:21:52.691Z,8.87
2022-12-31T15:24:23.894Z,8.74
2022-12-31T15:26:54.012Z,8.57
2022-12-31T15:29:33.460Z,8.66
2022-12-31T15:32:04.171Z,8.52
2022-12-31T15:34:34.592Z,8.52
2022-12-31T15:37:07.129Z,8.45
2022-12-31T15:39:34.523Z,8.53
2022-12-31T15:44:53.497Z,8.66
2022-12-31T15:47:34.681Z,8.75
2022-12-31T15:50:03.729Z,8.85
2022-12-31T15:52:39.176Z,8.71
2022-12-31T15:55:07.040Z,9.13
2022-12-31T15:57:39.206Z,9.45
2022-12-31T16:00:14.528Z,9.38
2022-12-31T16:02:42.192Z,9.37
2022-12-31T16:05:25.241Z,9.45
2022-12-31T16:07:54.498Z,9.49
2022-12-31T16:10:25.649Z,9.62
2022-12-31T16:12:56.474Z,9.57
2022-12-31T16:15:34.126Z,9.49
2022-12-31T16:18:09.434Z,9.10
2022-12-31T16:20:42.224Z,8.88
2022-12-31T16:23:26.555Z,8.74
2022-12-31T16:25:56.281Z,8.84
2022-12-31T16:28:28.379Z,8.73
2022-12-31T16:31:03.137Z,8.65
2022-12-31T16:33:32.306Z,8.60
2022-12-31T16:36:03.891Z,8.72
2022-12-31T16:38:37.800Z,8.29
2022-12-31T16:41:17.433Z,8.51
2022-12-31T16:43:46.869Z,8.66
2022-12-31T16:46:29.025Z,8.78
2022-12-31T16:49:05.323Z,8.94
2022-12-31T16:51:34.149Z,9.13
2022-12-31T16:54:02.434Z,8.85
2022-12-31T16:56:37.761Z,8.75
2022-12-31T16:59:27.216Z,8.74
2022-12-31T17:01:59.785Z,8.65
2022-12-31T17:04:27.584Z,8.82
2022-12-31T17:06:54.822Z,8.71
2022-12-31T17:09:31.670Z,8.74
2022-12-31T17:12:15.158Z,8.65
2022-12-31T17:14:50.175Z,8.58
2022-12-31T17:17:25.919Z,8.55
2022-12-31T17:19:58.068Z,8.40
2022-12-31T17:22:34.368Z,8.72
2022-12-31T17:25:06.743Z,8.45
2022-12-31T17:27:37.929Z,8.36
2022-12-31T17:30:28.717Z,8.63
2022-12-31T17:33:03.435Z,8.37
2022-12-31T17:35:33.372Z,8.39
2022-12-31T17:38:30.984Z,8.38
2022-12-31T17:41:09.427Z,8.35
2022-12-31T17:43:37.963Z,8.24
2022-12-31T17:46:14.337Z,8.39
2022-12-31T17:48:42.985Z,8.37
2022-12-31T17:51:10.201Z,8.44
2022-12-31T17:53:37.454Z,8.40
2022-12-31T17:56:06.828Z,8.42
2022-12-31T17:58:53.384Z,8.31
2022-12-31T18:01:22.840Z,8.30
2022-12-31T18:03:50.475Z,8.28
2022-12-31T18:06:17.985Z,8.28
2022-12-31T18:08:45.260Z,8.31
2022-12-31T18:11:18.926Z,8.36
2022-12-31T18:13:46.368Z,8.35
2022-12-31T18:16:14.081Z,8.35
2022-12-31T18:18:41.463Z,8.29
2022-12-31T18:21:22.024Z,8.31
2022-12-31T18:23:50.385Z,8.44
2022-12-31T18:26:20.058Z,8.50
2022-12-31T18:28:48.898Z,8.42
2022-12-31T18:31:22.471Z,8.33
2022-12-31T18:33:51.323Z,8.34
2022-12-31T18:36:20.483Z,8.47
2022-12-31T18:38:48.289Z,8.59
2022-12-31T18:41:20.478Z,8.73
2022-12-31T18:43:48.594Z,8.79
2022-12-31T18:46:18.347Z,8.67
2022-12-31T18:48:48.994Z,8.69
2022-12-31T18:51:18.964Z,8.94
2022-12-31T18:53:46.227Z,8.90
2022-12-31T18:56:16.418Z,8.89
2022-12-31T18:58:44.696Z,8.87
2022-12-31T19:01:26.758Z,8.88
2022-12-31T19:04:10.668Z,8.82
2022-12-31T19:06:41.252Z,8.98
2022-12-31T19:09:30.412Z,9.12
2022-12-31T19:11:56.498Z,9.15
2022-12-31T19:14:24.752Z,9.15
2022-12-31T19:16:53.532Z,9.05
2022-12-31T19:19:20.934Z,9.13
2022-12-31T19:21:48.940Z,9.21
2022-12-31T19:24:19.086Z,9.15
2022-12-31T19:26:46.685Z,9.05
2022-12-31T19:29:17.049Z,9.03
2022-12-31T19:31:44.835Z,8.97
2022-12-31T19:34:12.288Z,8.91
2022-12-31T19:36:44.027Z,8.86
2022-12-31T19:39:17.223Z,8.83
2022-12-31T19:41:45.519Z,8.87
2022-12-31T19:44:17.026Z,8.81
2022-12-31T19:46:45.253Z,8.78
2022-12-31T19:49:13.476Z,8.64
2022-12-31T19:51:41.062Z,8.61
2022-12-31T19:54:08.635Z,8.63
2022-12-31T19:56:35.882Z,8.64
2022-12-31T19:59:07.675Z,8.60
2022-12-31T20:01:35.238Z,8.49
2022-12-31T20:04:02.948Z,8.36
2022-12-31T20:06:31.080Z,8.38
2022-12-31T20:08:59.336Z,8.38
2022-12-31T20:11:27.537Z,8.24
2022-12-31T20:13:55.261Z,8.26
2022-12-31T20:16:24.678Z,8.26
2022-12-31T20:18:52.793Z,8.11
2022-12-31T20:21:23.148Z,8.13
2022-12-31T20:23:52.999Z,8.33
2022-12-31T20:26:22.396Z,8.33
2022-12-31T20:28:50.334Z,8.37
2022-12-31T20:31:21.355Z,8.53
2022-12-31T20:33:48.994Z,8.57
2022-12-31T20:36:17.425Z,8.45
2022-12-31T20:38:45.889Z,8.43
2022-12-31T20:41:16.338Z,8.29
2022-12-31T20:43:44.564Z,8.22
2022-12-31T20:46:20.513Z,8.29
2022-12-31T20:48:49.721Z,8.26
2022-12-31T20:51:18.656Z,8.25
2022-12-31T20:53:47.979Z,8.28
2022-12-31T20:56:16.355Z,8.20
2022-12-31T20:58:45.827Z,8.23
2022-12-31T21:01:18.661Z,8.21
2022-12-31T21:04:05.766Z,8.16
2022-12-31T21:06:35.467Z,8.18
2022-12-31T21:09:06.182Z,8.19
2022-12-31T21:11:34.508Z,8.18
2022-12-31T21:14:02.360Z,8.16
2022-12-31T21:16:33.082Z,8.15
2022-12-31T21:19:00.687Z,8.01
2022-12-31T21:21:28.529Z,8.03
2022-12-31T21:23:58.605Z,8.08
2022-12-31T21:26:26.274Z,8.15
2022-12-31T21:28:54.204Z,8.25
2022-12-31T21:31:22.609Z,8.57
2022-12-31T21:33:50.205Z,8.40
2022-12-31T21:36:17.774Z,8.33
2022-12-31T21:38:45.634Z,8.43
2022-12-31T21:41:16.685Z,8.31
2022-12-31T21:43:44.711Z,8.17
2022-12-31T21:46:12.660Z,8.19
2022-12-31T21:48:40.529Z,8.15
2022-12-31T21:51:11.853Z,8.07
2022-12-31T21:53:40.667Z,8.14
2022-12-31T21:56:09.354Z,8.08
2022-12-31T21:58:39.029Z,7.96
2022-12-31T22:01:15.544Z,7.98
2022-12-31T22:03:44.728Z,8.00
2022-12-31T22:06:15.454Z,8.00
2022-12-31T22:08:44.898Z,8.01
2022-12-31T22:11:13.500Z,7.89
2022-12-31T22:13:41.692Z,7.72
2022-12-31T22:16:09.748Z,7.65
2022-12-31T22:18:39.196Z,7.70
2022-12-31T22:21:10.784Z,7.61
2022-12-31T22:23:41.973Z,7.72
2022-12-31T22:26:12.860Z,7.65
2022-12-31T22:28:42.564Z,7.61
2022-12-31T22:31:14.463Z,7.58
2022-12-31T22:33:43.037Z,7.50
2022-12-31T22:36:15.256Z,7.52
2022-12-31T22:38:43.530Z,7.45
2022-12-31T22:41:19.654Z,7.44
2022-12-31T22:43:49.398Z,7.56
2022-12-31T22:46:21.075Z,7.61
2022-12-31T22:48:49.130Z,7.67
2022-12-31T22:51:17.732Z,7.65
2022-12-31T22:53:45.814Z,7.53
2022-12-31T22:56:16.095Z,7.51
2022-12-31T22:58:44.811Z,7.53
2022-12-31T23:01:18.809Z,7.38
2022-12-31T23:03:47.090Z,7.29
2022-12-31T23:06:15.019Z,7.21
2022-12-31T23:08:42.774Z,7.13
2022-12-31T23:11:10.771Z,7.15
2022-12-31T23:13:45.912Z,7.08
2022-12-31T23:16:18.359Z,7.06
2022-12-31T23:18:46.197Z,7.19
2022-12-31T23:21:13.978Z,7.27
2022-12-31T23:23:47.113Z,7.31
2022-12-31T23:26:14.695Z,7.25
2022-12-31T23:28:42.593Z,7.16
2022-12-31T23:31:10.525Z,7.09
2022-12-31T23:33:38.580Z,7.02
2022-12-31T23:36:07.258Z,6.86
2022-12-31T23:38:35.029Z,6.88
2022-12-31T23:41:15.167Z,6.94
2022-12-31T23:43:43.090Z,6.98
2022-12-31T23:46:11.839Z,6.96
2022-12-31T23:48:39.825Z,7.06
2022-12-31T23:51:07.671Z,6.94
2022-12-31T23:53:37.784Z,7.09
2022-12-31T23:56:23.013Z,7.37
2022-12-31T23:58:55.843Z,7.32
